UNIFLY Flight Plan

Who is Online Now?

Pilot VA/Community Aircraft Flight DTG (NM) Flight Plan
BORG / AAL007 Boeing 747-8 Napoli-Capodichino "Ugo Niutta" | NAP - CTA | Catania-Fontanarossa "Vincenzo Bellini" 1 NM Plan
FlyingNoodles / ASA727 Boeing 737-700 Cancun International Airport | CUN - CCS | Maiquetia Simon Bolivar Intl 0 NM Plan
VXL007-Adam / VIR7F Boeing 747-8 Hong Kong Intl | HKG - JFK | John F. Kennedy Intl 6249 NM Plan
VXL109-Tom / VIR5 CONC John F. Kennedy Intl | JFK - LHR | London Heathrow 756 NM Plan
Carman / AZA0395 Airbus A320-200 Napoli-Capodichino "Ugo Niutta" | NAP - CTA | Catania-Fontanarossa "Vincenzo Bellini" 17 NM Plan
VXL006-Eddie / BAW0223 Airbus A320-NEO Svalbard Longyear | LYR - IVL | Ivalo 4266 NM Plan



This flight plan is only for information to UniFly and Simulator's and should NOT be used for real flight plans.

Flight Plan for: VXL007-Adam on Virgin XL

This flight plan consits of airport data within the last 3 hours.

Current Flight Information

Origin Destination Alternative Aircraft
VHHH(HKG) | Hong Kong Intl KJFK(JFK) | John F. Kennedy Intl KIAD() | Washington Dulles Intl PMDG 747-8F Virgin Atlantic(B748) | Virgin Atlantic

Route: OCEA2A OCEAN V3 ENVAR M750 ANKIX Y891 IGMIS Y57 POROT Y809 IDLAN Y812 ADNAP OTR5 KALNA DCT 45N160E 48N170E 51N180E DCT RADIC DCT 56N160W DCT ODK DCT 59N140W 57N130W 55N120W 5330N11000W 49N100W DCT GFK DCT GRB DCT TWIGS DCT JHW J106 LVZ LENDY8


Cruise Information

Maxium Cruise Speed:

Maxium Cruise Altitude:

Current Position

Latitude: 31.56902376535

Longitude: 131.29794508167

Heading: 51

Current Speed: 588

Altitude Above Sea: 37124

Altitude Above Ground: 36752

Airport Information for: VHHH

Name: Hong Kong Intl

IATA: HKG

Metar: VHHH 222100Z 33010KT 9999 FEW010 SCT017 20/15 Q1018 NOSIG

Taf: TAF VHHH 222000Z 2221/2403 03010KT 9000 FEW015 SCT035 TX23/2306Z TN19/2223Z TN19/2323Z TEMPO 2221/2224 33010KT TEMPO 2308/2312 09015G25KT

Airport Information for: KJFK

Name: John F. Kennedy Intl

IATA: JFK

Metar: KJFK 221751Z 18013KT 10SM SCT020 BKN130 BKN250 05/00 A2998 RMK AO2 SLP153 SCT V BKN T00500000 10050 20006 58032

Taf: TAF KJFK 221733Z 2218/2324 20010KT P6SM SCT025 BKN250 TEMPO 2218/2219 BKN025 FM230000 17010KT P6SM BKN035 PROB30 2300/2303 -SHRA FM230300 18008KT 5SM -SHRA BR SCT009 OVC020 FM231400 22007KT 4SM BR OVC009 PROB30 2314/2316 -SHRA FM231600 27007KT P6SM OVC025 FM231800 32007KT P6SM SCT025 BKN040

Airport Information for: KIAD

Name: Washington Dulles Intl

IATA:

Metar: KIAD 231852Z 36005KT 10SM FEW015 OVC110 10/05 A2949 RMK AO2 SLP988 T01000050 $

Taf: KIAD 231740Z 2318/2424 35008KT 6SM -RA SCT030 BKN060 FM231900 34008KT P6SM SCT040 BKN060 FM240200 34004KT P6SM BKN050 BKN250 FM240900 33006KT P6SM SCT025 BKN035 FM241400 34010G17KT P6SM SCT030 BKN050 FM242300 36006KT P6SM SCT150

Current World Location Map